Time;durP1;ratioP1;P1;durP2;ratioP2;P2;SDS_P1;SDS_P2;PMS_P1;PMS_P2;Temp;Humidity;BMP_temperature;BMP_pressure;BME280_temperature;BME280_humidity;BME280_pressure;Samples;Min_cycle;Max_cycle;Signal;HPM_P1;HPM_P2
2021/05/12 00:00:12;;;;;;;7.90;6.80;;;13.60;98.30;;;;;;4114831;28;20469;-85
2021/05/12 00:02:15;;;;;;;9.73;6.80;;;13.50;98.30;;;;;;4119031;28;20474;-85
2021/05/12 00:04:17;;;;;;;9.40;6.77;;;13.50;98.30;;;;;;4121408;28;20486;-84
2021/05/12 00:06:20;;;;;;;8.50;7.30;;;13.50;98.30;;;;;;4124201;28;20523;-85
2021/05/12 00:08:24;;;;;;;9.17;7.80;;;13.50;98.30;;;;;;4116035;28;20540;-85
2021/05/12 00:10:27;;;;;;;10.23;6.80;;;13.50;98.30;;;;;;4119536;28;20506;-85
2021/05/12 00:12:31;;;;;;;8.87;7.33;;;13.50;98.30;;;;;;4114783;28;20533;-85
2021/05/12 00:14:36;;;;;;;8.20;6.80;;;13.60;98.30;;;;;;4126520;28;20477;-85
2021/05/12 00:16:39;;;;;;;10.10;7.17;;;13.50;98.30;;;;;;4120214;28;20555;-85
2021/05/12 00:18:44;;;;;;;10.80;7.27;;;13.50;98.30;;;;;;4110839;28;20473;-85
2021/05/12 00:20:47;;;;;;;10.10;8.13;;;13.60;98.30;;;;;;4117882;28;20504;-85
2021/05/12 00:22:54;;;;;;;9.00;7.17;;;13.60;98.30;;;;;;4124714;28;21011;-85
2021/05/12 00:24:56;;;;;;;7.30;6.27;;;13.50;98.30;;;;;;4124062;28;20497;-83
2021/05/12 00:26:59;;;;;;;8.83;7.10;;;13.40;98.30;;;;;;4121694;28;20459;-84
2021/05/12 00:29:03;;;;;;;10.03;7.07;;;13.40;98.30;;;;;;4120221;28;20571;-85
2021/05/12 00:31:05;;;;;;;8.97;7.10;;;13.40;98.30;;;;;;4117611;28;20470;-84
2021/05/12 00:33:08;;;;;;;9.00;8.10;;;13.40;98.30;;;;;;4108801;28;20480;-84
2021/05/12 00:35:12;;;;;;;9.17;7.30;;;13.50;98.30;;;;;;4113265;28;20543;-84
2021/05/12 00:37:14;;;;;;;9.17;7.50;;;13.50;98.30;;;;;;4117992;28;20468;-84
2021/05/12 00:39:17;;;;;;;9.20;6.70;;;13.50;98.30;;;;;;4113481;28;20877;-85
2021/05/12 00:41:20;;;;;;;11.07;8.23;;;13.50;98.30;;;;;;4121853;28;20472;-85
2021/05/12 00:43:22;;;;;;;11.77;7.20;;;13.50;98.30;;;;;;4121541;28;20499;-85
2021/05/12 00:45:26;;;;;;;8.67;7.00;;;13.50;98.30;;;;;;4120088;28;20468;-85
2021/05/12 00:47:30;;;;;;;7.97;6.60;;;13.40;98.30;;;;;;4121181;28;20483;-84
2021/05/12 00:49:34;;;;;;;9.20;6.93;;;13.40;98.30;;;;;;4121862;28;20460;-84
2021/05/12 00:51:37;;;;;;;10.70;7.80;;;13.50;98.30;;;;;;4119686;28;20511;-84
2021/05/12 00:53:39;;;;;;;8.30;6.90;;;13.40;98.30;;;;;;4124568;28;20571;-84
2021/05/12 00:56:27;;;;;;;10.60;8.00;;;13.40;98.30;;;;;;4121583;28;20478;-84
2021/05/12 00:58:30;;;;;;;14.50;7.30;;;13.50;98.30;;;;;;4117196;28;20470;-84
2021/05/12 01:00:34;;;;;;;10.30;7.67;;;13.30;98.30;;;;;;4118008;28;20472;-84
2021/05/12 01:02:37;;;;;;;9.37;7.00;;;13.40;98.30;;;;;;4126982;28;20940;-85
2021/05/12 01:04:39;;;;;;;10.47;7.97;;;13.40;98.30;;;;;;4121509;28;20477;-85
2021/05/12 01:06:42;;;;;;;8.77;7.60;;;13.50;98.30;;;;;;4119268;28;20532;-85
2021/05/12 01:08:44;;;;;;;10.40;7.37;;;13.60;98.30;;;;;;4122415;28;20472;-85
2021/05/12 01:10:47;;;;;;;11.27;8.10;;;13.50;98.30;;;;;;4120983;28;20514;-85
2021/05/12 01:12:51;;;;;;;12.23;8.80;;;13.40;98.30;;;;;;4120927;28;20483;-85
2021/05/12 01:14:58;;;;;;;11.53;7.30;;;13.30;98.30;;;;;;4125831;28;20464;-84
2021/05/12 01:17:02;;;;;;;11.20;8.10;;;13.30;98.30;;;;;;4117452;28;20558;-85
2021/05/12 01:19:05;;;;;;;9.20;8.23;;;13.30;98.30;;;;;;4116691;28;20562;-85
2021/05/12 01:21:09;;;;;;;9.97;7.40;;;13.30;98.30;;;;;;4116673;28;20468;-85
2021/05/12 01:23:12;;;;;;;11.07;7.20;;;13.30;98.30;;;;;;4120777;28;20877;-85
2021/05/12 01:25:14;;;;;;;10.70;7.50;;;13.40;98.30;;;;;;4127494;28;20561;-85
2021/05/12 01:27:18;;;;;;;7.90;6.90;;;13.40;98.30;;;;;;4121385;28;21017;-86
2021/05/12 01:29:20;;;;;;;8.13;6.50;;;13.40;98.30;;;;;;4118971;28;20472;-86
2021/05/12 01:31:29;;;;;;;11.70;6.90;;;13.50;98.30;;;;;;4124977;28;20472;-84
2021/05/12 01:33:31;;;;;;;12.30;6.87;;;13.40;98.30;;;;;;4111137;28;20499;-85
2021/05/12 01:35:34;;;;;;;10.30;6.73;;;13.50;98.30;;;;;;4118173;28;20473;-85
2021/05/12 01:37:38;;;;;;;9.90;7.10;;;13.50;98.30;;;;;;4118950;28;20977;-84
2021/05/12 01:39:40;;;;;;;9.67;7.10;;;13.50;98.30;;;;;;4117889;28;20468;-84
2021/05/12 01:41:44;;;;;;;7.60;6.37;;;13.50;98.30;;;;;;4117085;28;20468;-85
2021/05/12 01:43:46;;;;;;;7.43;6.50;;;13.50;98.30;;;;;;4117564;28;20500;-84
2021/05/12 01:45:50;;;;;;;10.80;6.30;;;13.50;98.30;;;;;;4118911;28;21032;-84
2021/05/12 01:47:52;;;;;;;8.17;6.30;;;13.40;98.30;;;;;;4120181;28;20495;-85
2021/05/12 01:49:58;;;;;;;8.60;7.80;;;13.20;98.30;;;;;;4120218;28;20490;-85
2021/05/12 01:52:01;;;;;;;8.90;6.80;;;13.20;98.30;;;;;;4130119;28;20908;-84
2021/05/12 01:54:07;;;;;;;6.60;5.87;;;13.10;98.30;;;;;;4117614;28;20479;-84
2021/05/12 01:56:10;;;;;;;11.00;6.90;;;12.90;98.30;;;;;;4119503;28;20471;-84
2021/05/12 01:58:13;;;;;;;11.83;6.50;;;12.80;98.30;;;;;;4123645;28;20480;-84
2021/05/12 02:00:24;;;;;;;10.43;6.33;;;12.80;98.30;;;;;;4122874;28;20495;-85
2021/05/12 02:02:26;;;;;;;9.57;7.00;;;12.80;98.30;;;;;;4114042;28;20483;-85
2021/05/12 02:04:29;;;;;;;8.93;6.40;;;12.80;98.30;;;;;;4111983;28;20500;-84
2021/05/12 02:06:32;;;;;;;12.70;6.60;;;12.90;98.30;;;;;;4129192;28;20478;-84
2021/05/12 02:08:34;;;;;;;8.17;6.60;;;12.90;98.30;;;;;;4114164;28;20877;-84
2021/05/12 02:10:41;;;;;;;10.33;6.57;;;12.90;98.30;;;;;;4121187;28;20567;-83
2021/05/12 02:12:43;;;;;;;8.37;6.67;;;12.90;98.30;;;;;;4119578;28;20463;-84
2021/05/12 02:14:46;;;;;;;7.50;5.90;;;13.00;98.30;;;;;;4112896;28;20569;-83
2021/05/12 02:16:48;;;;;;;6.17;5.50;;;13.10;98.30;;;;;;4112332;28;20472;-85
2021/05/12 02:18:52;;;;;;;7.87;6.17;;;13.20;98.30;;;;;;4125274;28;20556;-86
2021/05/12 02:20:55;;;;;;;12.17;6.80;;;13.30;98.30;;;;;;4117250;28;20469;-84
2021/05/12 02:22:58;;;;;;;8.57;6.33;;;13.20;98.30;;;;;;4119537;28;20491;-84
2021/05/12 02:25:01;;;;;;;8.43;7.30;;;13.20;98.30;;;;;;4128765;28;20567;-84
2021/05/12 02:27:05;;;;;;;11.13;6.37;;;13.20;98.30;;;;;;4122852;28;20499;-84
2021/05/12 02:29:07;;;;;;;10.10;6.33;;;13.20;98.30;;;;;;4127185;28;20460;-84
2021/05/12 02:31:10;;;;;;;11.80;7.20;;;13.10;98.30;;;;;;4120186;28;20503;-85
2021/05/12 02:33:13;;;;;;;9.40;6.33;;;12.90;98.30;;;;;;4120429;28;20494;-84
2021/05/12 02:35:17;;;;;;;7.83;6.17;;;12.80;98.30;;;;;;4118607;28;20468;-84
2021/05/12 02:37:19;;;;;;;9.10;6.97;;;12.70;98.30;;;;;;4116637;28;20900;-85
2021/05/12 02:39:22;;;;;;;9.00;7.20;;;12.70;98.30;;;;;;4111393;28;20571;-85
2021/05/12 02:41:25;;;;;;;8.50;6.20;;;12.70;98.30;;;;;;4126357;28;20474;-85
2021/05/12 02:43:28;;;;;;;12.83;8.23;;;12.70;98.30;;;;;;4123125;28;20495;-85
2021/05/12 02:45:32;;;;;;;8.70;6.40;;;12.60;98.30;;;;;;4121993;28;20472;-86
2021/05/12 02:47:35;;;;;;;9.53;7.17;;;12.50;98.30;;;;;;4124178;28;20464;-84
2021/05/12 02:49:38;;;;;;;8.30;7.40;;;12.40;98.30;;;;;;4128361;28;20562;-85
2021/05/12 02:51:41;;;;;;;12.53;8.47;;;12.40;98.30;;;;;;4125398;28;21001;-85
2021/05/12 02:53:44;;;;;;;13.47;9.03;;;12.40;98.30;;;;;;4117886;28;20572;-85
2021/05/12 02:55:46;;;;;;;14.30;8.47;;;12.40;98.30;;;;;;4112526;28;20587;-84
2021/05/12 02:57:49;;;;;;;11.13;7.70;;;12.50;98.30;;;;;;4112241;28;20870;-83
2021/05/12 02:59:52;;;;;;;11.80;9.00;;;12.50;98.30;;;;;;4114755;28;20494;-83
2021/05/12 03:01:55;;;;;;;10.03;8.07;;;12.60;98.30;;;;;;4117256;28;20472;-84
2021/05/12 03:03:57;;;;;;;9.70;8.00;;;12.70;98.30;;;;;;4114463;28;21009;-83
2021/05/12 03:06:00;;;;;;;8.53;6.97;;;12.70;98.30;;;;;;4110895;28;20472;-83
2021/05/12 03:08:03;;;;;;;12.30;8.13;;;12.80;98.30;;;;;;4109422;28;20555;-84
2021/05/12 03:10:12;;;;;;;13.03;8.57;;;12.80;98.30;;;;;;4119469;28;21076;-83
2021/05/12 03:12:14;;;;;;;10.90;8.60;;;12.80;98.30;;;;;;4130547;28;20519;-84
2021/05/12 03:14:17;;;;;;;15.13;7.27;;;12.80;98.30;;;;;;4111800;28;20490;-85
2021/05/12 03:16:21;;;;;;;11.30;8.50;;;12.90;98.30;;;;;;4122957;28;20527;-84
2021/05/12 03:18:26;;;;;;;12.30;8.70;;;13.00;98.30;;;;;;4121953;28;20468;-84
2021/05/12 03:20:29;;;;;;;13.53;8.67;;;13.00;98.30;;;;;;4122318;28;21006;-84
2021/05/12 03:22:32;;;;;;;16.77;8.97;;;13.10;98.30;;;;;;4122693;28;20495;-85
2021/05/12 03:24:35;;;;;;;12.00;9.30;;;13.10;98.30;;;;;;4125088;28;20510;-85
2021/05/12 03:26:37;;;;;;;12.93;10.07;;;13.20;98.30;;;;;;4116396;28;20511;-85
2021/05/12 03:28:40;;;;;;;12.87;10.70;;;13.20;98.30;;;;;;4116290;28;21052;-85
2021/05/12 03:30:43;;;;;;;12.50;9.40;;;13.10;98.30;;;;;;4118941;28;20499;-85
2021/05/12 03:32:46;;;;;;;14.90;9.53;;;13.10;98.30;;;;;;4120226;28;21117;-85
2021/05/12 03:34:49;;;;;;;14.07;10.70;;;13.00;98.30;;;;;;4115836;28;20845;-85
2021/05/12 03:36:51;;;;;;;12.33;9.93;;;12.80;98.30;;;;;;4112444;28;20477;-84
2021/05/12 03:38:55;;;;;;;13.83;10.80;;;12.70;98.30;;;;;;4117609;28;20472;-85
2021/05/12 03:40:58;;;;;;;15.10;11.73;;;12.60;98.30;;;;;;4120981;28;20472;-85
2021/05/12 03:43:01;;;;;;;18.00;11.33;;;12.70;98.30;;;;;;4111841;28;21091;-84
2021/05/12 03:45:04;;;;;;;16.70;12.40;;;12.60;98.30;;;;;;4117855;28;20858;-84
2021/05/12 03:47:07;;;;;;;16.97;13.13;;;12.50;98.30;;;;;;4122945;28;20571;-84
2021/05/12 03:49:11;;;;;;;21.40;15.00;;;12.40;98.30;;;;;;4111126;28;20480;-84
2021/05/12 03:51:13;;;;;;;27.70;20.13;;;12.50;98.30;;;;;;4123761;28;20554;-84
2021/05/12 03:53:16;;;;;;;18.50;14.80;;;12.50;98.30;;;;;;4120747;28;20487;-83
2021/05/12 03:55:19;;;;;;;20.07;13.30;;;12.60;98.30;;;;;;4115249;28;20562;-84
2021/05/12 03:57:22;;;;;;;17.63;13.43;;;12.60;98.30;;;;;;4122581;28;20824;-85
2021/05/12 03:59:24;;;;;;;16.00;13.07;;;12.60;98.30;;;;;;4123819;28;20555;-82
2021/05/12 04:01:27;;;;;;;18.03;14.27;;;12.70;98.30;;;;;;4117438;28;20511;-82
2021/05/12 04:03:29;;;;;;;19.20;14.90;;;12.70;98.30;;;;;;4129138;28;21146;-83
2021/05/12 04:05:33;;;;;;;19.07;14.20;;;12.70;98.30;;;;;;4123763;28;20474;-83
2021/05/12 04:07:35;;;;;;;18.17;14.00;;;12.80;98.30;;;;;;4121915;28;20478;-85
2021/05/12 04:09:38;;;;;;;16.50;13.07;;;12.70;98.30;;;;;;4119517;28;20472;-85
2021/05/12 04:11:44;;;;;;;16.47;14.00;;;12.70;98.30;;;;;;4126151;28;20499;-84
2021/05/12 04:13:46;;;;;;;19.40;15.20;;;12.70;98.30;;;;;;4116534;28;20916;-84
2021/05/12 04:15:49;;;;;;;17.10;13.17;;;12.70;98.30;;;;;;4127862;28;20498;-84
2021/05/12 04:17:51;;;;;;;20.10;14.93;;;12.70;98.30;;;;;;4128087;28;20448;-84
2021/05/12 04:19:54;;;;;;;22.43;14.87;;;12.80;98.30;;;;;;4129107;28;20482;-84
2021/05/12 04:22:02;;;;;;;19.90;15.40;;;12.70;98.30;;;;;;4126108;28;20562;-84
2021/05/12 04:24:05;;;;;;;20.50;14.63;;;12.70;98.30;;;;;;4116901;28;20585;-84
2021/05/12 04:26:08;;;;;;;19.87;13.87;;;12.70;98.30;;;;;;4117722;28;20554;-84
2021/05/12 04:28:11;;;;;;;20.87;14.00;;;12.60;98.30;;;;;;4119394;28;20969;-84
2021/05/12 04:30:17;;;;;;;20.80;14.60;;;12.50;98.30;;;;;;4125713;28;20466;-84
2021/05/12 04:32:19;;;;;;;21.07;14.53;;;12.40;98.30;;;;;;4126100;28;20463;-84
2021/05/12 04:34:22;;;;;;;19.60;14.30;;;12.30;98.30;;;;;;4124547;28;20480;-84
2021/05/12 04:36:25;;;;;;;18.23;14.00;;;12.30;98.30;;;;;;4125106;28;20551;-84
2021/05/12 04:38:28;;;;;;;23.00;14.40;;;12.30;98.30;;;;;;4121049;28;20571;-83
2021/05/12 04:40:30;;;;;;;17.57;13.03;;;12.40;98.30;;;;;;4124390;28;20474;-83
2021/05/12 04:42:33;;;;;;;18.27;14.07;;;12.40;98.30;;;;;;4125236;28;20473;-83
2021/05/12 04:44:35;;;;;;;19.07;14.70;;;12.40;98.30;;;;;;4124564;28;20565;-83
2021/05/12 04:46:39;;;;;;;20.60;13.73;;;12.40;98.30;;;;;;4123406;28;20486;-85
2021/05/12 04:48:42;;;;;;;23.13;17.80;;;12.40;98.30;;;;;;4122639;28;20471;-84
2021/05/12 04:50:44;;;;;;;19.97;13.93;;;12.40;98.30;;;;;;4122700;28;20467;-84
2021/05/12 04:52:47;;;;;;;21.83;14.53;;;12.40;98.30;;;;;;4128388;28;20508;-84
2021/05/12 04:54:50;;;;;;;19.07;13.00;;;12.40;98.30;;;;;;4124902;28;20547;-84
2021/05/12 04:56:53;;;;;;;17.90;13.40;;;12.40;98.30;;;;;;4129421;28;20467;-84
2021/05/12 04:58:57;;;;;;;19.70;14.03;;;12.30;98.30;;;;;;4116971;28;20471;-86
2021/05/12 05:01:00;;;;;;;21.33;12.73;;;12.40;98.30;;;;;;4128126;28;20587;-85
2021/05/12 05:03:04;;;;;;;17.33;13.07;;;12.40;98.30;;;;;;4127689;28;20554;-85
2021/05/12 05:05:08;;;;;;;20.90;13.17;;;12.50;98.30;;;;;;4126059;28;20578;-84
2021/05/12 05:07:11;;;;;;;20.20;14.27;;;12.50;98.30;;;;;;4127114;28;20513;-86
2021/05/12 05:09:13;;;;;;;24.27;13.70;;;12.50;98.30;;;;;;4124074;28;20555;-85
2021/05/12 05:11:17;;;;;;;17.90;13.00;;;12.50;98.30;;;;;;4118751;28;20502;-85
2021/05/12 05:13:19;;;;;;;19.00;13.00;;;12.50;98.30;;;;;;4115023;28;20499;-85
2021/05/12 05:15:23;;;;;;;20.40;13.40;;;12.50;98.30;;;;;;4112537;28;20492;-85
2021/05/12 05:17:26;;;;;;;19.70;12.77;;;12.50;98.30;;;;;;4111753;28;20479;-86
2021/05/12 05:19:29;;;;;;;20.10;12.33;;;12.60;98.30;;;;;;4128173;28;20470;-84
2021/05/12 05:21:32;;;;;;;18.03;11.67;;;12.50;98.30;;;;;;4102080;28;20469;-84
2021/05/12 05:23:35;;;;;;;18.50;12.03;;;12.50;98.30;;;;;;4123697;28;20520;-85
2021/05/12 05:25:38;;;;;;;17.37;11.63;;;12.40;98.30;;;;;;4111789;28;20870;-84
2021/05/12 05:27:46;;;;;;;17.17;12.83;;;12.40;98.30;;;;;;4121258;28;20993;-84
2021/05/12 05:29:54;;;;;;;20.27;13.33;;;12.50;98.30;;;;;;4116645;28;20471;-85
2021/05/12 05:31:56;;;;;;;20.90;13.13;;;12.50;98.30;;;;;;4123762;28;20483;-85
2021/05/12 05:33:59;;;;;;;19.13;13.53;;;12.60;98.30;;;;;;4117653;28;20858;-84
2021/05/12 05:36:02;;;;;;;18.33;14.27;;;12.60;98.30;;;;;;4125909;28;21278;-84
2021/05/12 05:38:04;;;;;;;15.97;12.93;;;12.60;98.30;;;;;;4121660;28;20474;-84
2021/05/12 05:40:08;;;;;;;19.00;13.53;;;12.80;98.30;;;;;;4120286;28;20505;-83
2021/05/12 05:42:11;;;;;;;20.57;12.50;;;12.70;98.30;;;;;;4118420;28;20492;-84
2021/05/12 05:44:14;;;;;;;15.80;11.37;;;12.70;98.30;;;;;;4116557;28;20502;-84
2021/05/12 05:46:17;;;;;;;17.50;12.50;;;12.60;98.30;;;;;;4122670;28;20566;-84
2021/05/12 05:48:19;;;;;;;16.20;11.70;;;12.50;98.30;;;;;;4116812;28;20467;-83
2021/05/12 05:50:23;;;;;;;21.33;12.70;;;12.50;98.30;;;;;;4118222;28;20471;-85
2021/05/12 05:52:25;;;;;;;17.20;13.30;;;12.60;98.30;;;;;;4120975;28;20495;-84
2021/05/12 05:54:28;;;;;;;31.53;23.30;;;12.70;98.30;;;;;;4124909;28;20483;-84
2021/05/12 05:56:30;;;;;;;18.67;11.37;;;12.80;98.30;;;;;;4122409;28;21036;-84
2021/05/12 05:58:33;;;;;;;21.80;15.90;;;12.80;98.30;;;;;;4122543;28;20990;-83
2021/05/12 06:00:36;;;;;;;15.30;11.20;;;12.80;98.30;;;;;;4123826;28;20464;-83
2021/05/12 06:02:38;;;;;;;13.17;10.60;;;12.80;98.30;;;;;;4119695;28;20484;-84
2021/05/12 06:04:41;;;;;;;16.40;11.13;;;12.80;98.30;;;;;;4123029;28;20560;-84
2021/05/12 06:06:44;;;;;;;19.20;13.00;;;12.80;98.30;;;;;;4117224;28;20479;-84
2021/05/12 06:08:46;;;;;;;30.27;19.10;;;12.80;98.30;;;;;;4118232;28;20547;-84
2021/05/12 06:10:49;;;;;;;16.47;11.63;;;12.80;98.30;;;;;;4121156;28;20539;-83
2021/05/12 06:12:51;;;;;;;13.77;10.90;;;12.90;98.30;;;;;;4120668;28;20487;-83
2021/05/12 06:14:54;;;;;;;13.80;10.67;;;13.00;98.30;;;;;;4125909;28;20505;-84
2021/05/12 06:17:18;;;;;;;14.30;11.67;;;13.10;98.30;;;;;;4121222;28;20463;-83
2021/05/12 06:19:20;;;;;;;18.20;10.90;;;13.10;98.30;;;;;;4122485;28;20467;-83
2021/05/12 06:21:25;;;;;;;13.93;10.97;;;13.20;98.30;;;;;;4117423;28;20510;-84
2021/05/12 06:23:27;;;;;;;12.30;10.57;;;13.20;98.30;;;;;;4119264;28;21016;-84
2021/05/12 06:25:31;;;;;;;18.73;13.80;;;13.20;98.30;;;;;;4119469;28;20769;-83
2021/05/12 06:27:34;;;;;;;19.20;14.87;;;13.30;98.30;;;;;;4132052;28;20483;-83
2021/05/12 06:29:37;;;;;;;20.03;15.20;;;13.20;98.30;;;;;;4130407;28;21004;-83
2021/05/12 06:31:40;;;;;;;20.00;14.73;;;13.20;98.30;;;;;;4125887;28;20528;-84
2021/05/12 06:33:45;;;;;;;21.17;12.47;;;13.10;98.30;;;;;;4125394;28;20515;-84
2021/05/12 06:35:48;;;;;;;14.33;11.43;;;13.10;98.30;;;;;;4126554;28;20484;-84
2021/05/12 06:37:50;;;;;;;16.20;10.70;;;13.20;98.30;;;;;;4126510;28;20474;-84
2021/05/12 06:39:53;;;;;;;14.27;12.00;;;13.20;98.30;;;;;;4127571;28;20483;-84
2021/05/12 06:41:55;;;;;;;13.37;10.47;;;13.20;98.30;;;;;;4129261;28;20464;-84
2021/05/12 06:43:58;;;;;;;21.23;13.93;;;13.20;98.30;;;;;;4127677;28;20498;-83
2021/05/12 06:46:01;;;;;;;21.03;15.03;;;13.30;98.30;;;;;;4122333;28;20456;-83
2021/05/12 06:48:04;;;;;;;17.40;10.50;;;13.10;98.30;;;;;;4124254;28;20483;-83
2021/05/12 06:50:09;;;;;;;11.83;9.63;;;13.10;98.30;;;;;;4119941;28;20499;-84
2021/05/12 06:52:12;;;;;;;17.60;10.87;;;13.10;98.30;;;;;;4120234;28;20475;-83
2021/05/12 06:54:14;;;;;;;14.33;11.00;;;13.10;98.30;;;;;;4117907;28;20525;-83
2021/05/12 06:56:18;;;;;;;26.57;14.87;;;13.10;98.30;;;;;;4124782;28;20483;-84
2021/05/12 06:58:20;;;;;;;13.80;10.93;;;13.10;98.30;;;;;;4127087;28;20527;-84
2021/05/12 07:00:24;;;;;;;14.77;11.13;;;13.10;98.30;;;;;;4131209;28;20474;-84
2021/05/12 07:02:27;;;;;;;13.70;10.90;;;13.20;98.30;;;;;;4127318;28;20464;-84
2021/05/12 07:04:29;;;;;;;16.90;12.20;;;13.20;98.30;;;;;;4124562;28;20513;-84
2021/05/12 07:06:33;;;;;;;14.43;10.90;;;13.30;98.30;;;;;;4117021;28;20498;-82
2021/05/12 07:08:37;;;;;;;16.63;11.30;;;13.40;98.30;;;;;;4113541;28;21241;-83
2021/05/12 07:10:40;;;;;;;21.20;15.70;;;13.40;98.30;;;;;;4110560;28;20847;-83
2021/05/12 07:12:42;;;;;;;37.97;24.30;;;13.50;98.30;;;;;;4119734;28;20482;-83
2021/05/12 07:14:45;;;;;;;19.17;13.43;;;13.50;98.30;;;;;;4116896;28;20491;-83
2021/05/12 07:16:52;;;;;;;16.27;13.00;;;13.50;98.30;;;;;;4114329;28;20475;-82
2021/05/12 07:18:56;;;;;;;18.00;13.27;;;13.50;98.30;;;;;;4121527;28;20467;-82
2021/05/12 07:20:58;;;;;;;17.17;13.60;;;13.60;98.30;;;;;;4122629;28;20487;-84
2021/05/12 07:23:05;;;;;;;17.37;12.87;;;13.70;98.30;;;;;;4122441;28;20545;-83
2021/05/12 07:25:08;;;;;;;18.50;13.70;;;13.70;98.30;;;;;;4121257;28;20483;-83
2021/05/12 07:27:11;;;;;;;17.53;13.30;;;13.90;98.30;;;;;;4118626;28;20571;-82
2021/05/12 07:29:14;;;;;;;18.43;14.50;;;13.90;98.30;;;;;;4124207;28;20476;-83
2021/05/12 07:31:18;;;;;;;16.70;14.10;;;13.90;98.30;;;;;;4123726;28;20844;-82
2021/05/12 07:33:21;;;;;;;20.00;13.70;;;14.00;98.30;;;;;;4123736;28;20497;-82
2021/05/12 07:35:23;;;;;;;20.50;12.60;;;14.10;98.30;;;;;;4110353;28;20505;-83
2021/05/12 07:37:26;;;;;;;15.60;13.70;;;14.10;98.30;;;;;;4106126;28;20483;-81
2021/05/12 07:39:31;;;;;;;18.33;13.10;;;14.10;98.30;;;;;;4112937;28;20535;-81
2021/05/12 07:41:34;;;;;;;14.00;11.83;;;14.20;98.30;;;;;;4120867;28;20558;-81
2021/05/12 07:43:37;;;;;;;18.10;13.23;;;14.20;98.30;;;;;;4116161;28;20536;-83
2021/05/12 07:45:41;;;;;;;15.27;13.03;;;14.30;98.30;;;;;;4107944;28;20510;-82
2021/05/12 07:47:43;;;;;;;20.30;12.97;;;14.40;98.30;;;;;;4116609;28;20467;-81
2021/05/12 07:49:46;;;;;;;13.20;11.80;;;14.40;98.30;;;;;;4119907;28;20470;-82
2021/05/12 07:51:48;;;;;;;16.57;12.00;;;14.40;98.30;;;;;;4119195;28;20464;-82
2021/05/12 07:53:52;;;;;;;16.57;12.37;;;14.40;98.30;;;;;;4117388;28;20495;-83
2021/05/12 07:55:55;;;;;;;16.43;10.93;;;14.40;98.30;;;;;;4122988;28;20501;-82
2021/05/12 07:57:58;;;;;;;18.80;11.97;;;14.50;98.30;;;;;;4117300;28;20469;-83
2021/05/12 08:00:04;;;;;;;14.80;11.57;;;14.60;98.30;;;;;;4120163;28;20467;-81
2021/05/12 08:02:07;;;;;;;19.70;11.70;;;14.60;98.30;;;;;;4119157;28;20525;-82
2021/05/12 08:04:12;;;;;;;13.90;12.17;;;14.70;98.30;;;;;;4115903;28;20549;-82
2021/05/12 08:06:14;;;;;;;15.70;10.20;;;14.60;98.30;;;;;;4117587;28;20850;-82
2021/05/12 08:08:19;;;;;;;15.77;10.70;;;14.60;98.30;;;;;;4118618;28;20965;-82
2021/05/12 08:10:21;;;;;;;12.73;10.20;;;14.60;98.30;;;;;;4122265;28;20486;-82
2021/05/12 08:12:28;;;;;;;13.80;10.00;;;14.50;98.30;;;;;;4119458;28;20495;-82
2021/05/12 08:14:31;;;;;;;15.33;9.90;;;14.50;98.30;;;;;;4119458;28;20468;-82
2021/05/12 08:16:33;;;;;;;17.43;10.33;;;14.50;98.30;;;;;;4116943;28;20502;-83
2021/05/12 08:18:35;;;;;;;14.33;11.00;;;14.60;98.30;;;;;;4119363;28;20488;-81
2021/05/12 08:20:39;;;;;;;14.40;10.80;;;14.60;98.30;;;;;;4112371;28;20472;-80
2021/05/12 08:22:44;;;;;;;16.37;10.47;;;14.60;98.30;;;;;;4117597;28;21017;-81
2021/05/12 08:24:48;;;;;;;18.47;14.63;;;14.60;98.30;;;;;;4118018;28;20468;-82
2021/05/12 08:26:51;;;;;;;23.37;16.37;;;14.70;98.30;;;;;;4118561;28;20467;-81
2021/05/12 08:28:55;;;;;;;17.50;13.00;;;14.70;98.30;;;;;;4118615;28;20471;-81
2021/05/12 08:31:00;;;;;;;15.57;11.40;;;14.60;98.30;;;;;;4117411;28;20849;-82
2021/05/12 08:33:05;;;;;;;19.37;10.83;;;14.70;98.30;;;;;;4121505;28;20487;-81
2021/05/12 08:35:09;;;;;;;18.00;11.27;;;14.60;98.30;;;;;;4121255;28;20543;-82
2021/05/12 08:37:12;;;;;;;15.10;11.47;;;14.60;98.30;;;;;;4122793;28;20522;-81
2021/05/12 08:39:14;;;;;;;17.20;12.27;;;14.40;98.30;;;;;;4122363;28;20466;-82
2021/05/12 08:41:18;;;;;;;19.50;12.50;;;14.30;98.30;;;;;;4115682;28;20566;-81
2021/05/12 08:43:27;;;;;;;14.93;11.90;;;14.20;98.30;;;;;;4121370;28;20491;-81
2021/05/12 08:45:32;;;;;;;18.03;14.17;;;14.30;98.30;;;;;;4122948;28;20490;-81
2021/05/12 08:47:35;;;;;;;35.33;25.53;;;14.40;98.30;;;;;;4131111;28;20481;-81
2021/05/12 08:49:41;;;;;;;24.53;16.53;;;14.50;98.30;;;;;;4125720;28;20498;-81
2021/05/12 08:51:43;;;;;;;16.60;12.70;;;14.50;98.30;;;;;;4130134;28;20500;-81
2021/05/12 08:53:47;;;;;;;16.13;13.10;;;14.40;98.30;;;;;;4129827;28;20490;-80
2021/05/12 08:55:50;;;;;;;19.87;12.70;;;14.50;98.30;;;;;;4129287;28;20471;-82
2021/05/12 08:57:52;;;;;;;12.10;9.87;;;14.50;98.30;;;;;;4125642;28;20476;-81
2021/05/12 08:59:54;;;;;;;11.30;9.30;;;14.50;98.30;;;;;;4131778;28;20468;-81
2021/05/12 09:01:59;;;;;;;9.60;7.90;;;14.50;98.30;;;;;;4135134;28;20473;-80
2021/05/12 09:04:03;;;;;;;13.13;7.90;;;14.70;98.30;;;;;;4322347;23;21078;-77
2021/05/12 09:06:06;;;;;;;9.80;7.77;;;14.80;98.30;;;;;;4124511;28;20914;-77
2021/05/12 09:08:08;;;;;;;9.30;7.57;;;15.00;98.30;;;;;;4125073;28;20565;-78
2021/05/12 09:10:12;;;;;;;9.77;6.90;;;15.10;98.30;;;;;;4125898;28;20467;-78
2021/05/12 09:12:15;;;;;;;12.37;6.87;;;15.20;98.30;;;;;;4124751;28;20476;-77
2021/05/12 09:14:28;;;;;;;11.23;7.00;;;15.40;98.30;;;;;;4123959;28;20493;-78
2021/05/12 09:16:32;;;;;;;11.70;7.47;;;15.50;98.30;;;;;;4124442;28;20464;-78
2021/05/12 09:18:35;;;;;;;19.33;12.07;;;15.50;98.30;;;;;;4125832;28;20476;-78
2021/05/12 09:20:39;;;;;;;29.53;20.30;;;15.70;98.30;;;;;;4124656;28;21480;-78
2021/05/12 09:22:42;;;;;;;13.23;9.70;;;15.70;98.30;;;;;;4123141;28;20468;-78
2021/05/12 09:24:44;;;;;;;16.03;8.10;;;15.70;98.30;;;;;;4123538;28;20476;-78
2021/05/12 09:26:47;;;;;;;9.53;8.27;;;15.70;98.30;;;;;;4124847;28;20482;-78
2021/05/12 09:28:54;;;;;;;11.10;8.50;;;15.70;98.30;;;;;;4124562;28;20472;-78
2021/05/12 09:31:06;;;;;;;9.43;7.63;;;15.80;98.30;;;;;;4124922;28;21092;-78
2021/05/12 09:33:17;;;;;;;13.50;8.40;;;15.90;98.30;;;;;;4124907;28;20853;-78
2021/05/12 09:35:23;;;;;;;9.33;7.10;;;16.00;98.30;;;;;;4124175;28;20519;-77
2021/05/12 09:37:28;;;;;;;9.03;7.10;;;15.90;98.30;;;;;;4124170;28;20479;-78
2021/05/12 09:39:30;;;;;;;8.93;7.37;;;16.00;98.30;;;;;;4124385;28;20475;-78
2021/05/12 09:41:34;;;;;;;11.80;7.77;;;15.90;98.30;;;;;;4124869;28;20549;-78
2021/05/12 09:43:40;;;;;;;11.70;7.07;;;15.80;98.30;;;;;;4122763;28;20502;-78
2021/05/12 09:45:43;;;;;;;8.80;7.43;;;15.80;98.30;;;;;;4123578;28;21039;-77
2021/05/12 09:47:46;;;;;;;8.70;6.73;;;16.00;98.30;;;;;;4123853;28;20475;-78
2021/05/12 09:49:49;;;;;;;10.63;7.53;;;16.10;98.30;;;;;;4126596;28;20468;-78
2021/05/12 09:51:52;;;;;;;12.80;7.07;;;16.20;98.30;;;;;;4138023;28;20463;-78
2021/05/12 09:54:07;;;;;;;9.60;6.47;;;16.30;98.30;;;;;;4137728;28;20486;-78
2021/05/12 09:56:11;;;;;;;6.30;5.70;;;16.40;98.30;;;;;;4138912;28;20467;-78
2021/05/12 09:58:16;;;;;;;8.40;6.47;;;16.40;98.30;;;;;;4138674;28;20770;-78
2021/05/12 10:00:26;;;;;;;9.83;6.37;;;16.30;98.30;;;;;;4137515;28;20487;-78
2021/05/12 10:02:44;;;;;;;8.37;7.60;;;16.30;98.30;;;;;;4133523;28;20485;-78
2021/05/12 10:04:48;;;;;;;7.40;6.10;;;16.10;98.30;;;;;;4134695;28;20470;-78
2021/05/12 10:06:51;;;;;;;9.10;6.40;;;15.70;98.30;;;;;;4136773;28;20498;-79
2021/05/12 10:08:54;;;;;;;6.17;5.40;;;15.60;98.30;;;;;;4133414;28;20471;-79
2021/05/12 10:11:00;;;;;;;11.30;7.30;;;15.40;98.30;;;;;;4124942;28;20476;-79
2021/05/12 10:13:03;;;;;;;7.30;6.10;;;15.30;98.30;;;;;;4125099;28;20499;-80
2021/05/12 10:15:07;;;;;;;10.43;7.13;;;15.40;98.30;;;;;;4125221;28;20478;-80
2021/05/12 10:17:11;;;;;;;7.13;5.60;;;15.60;98.30;;;;;;4125338;28;20884;-79
2021/05/12 10:19:14;;;;;;;16.13;10.50;;;15.70;98.30;;;;;;4125612;28;20514;-79
2021/05/12 10:21:16;;;;;;;10.43;7.87;;;15.90;98.30;;;;;;4124715;28;20470;-79
2021/05/12 10:23:22;;;;;;;16.17;12.60;;;15.90;98.30;;;;;;4123658;28;20511;-79
2021/05/12 10:25:24;;;;;;;7.97;6.50;;;15.90;98.30;;;;;;4123852;28;20498;-79
2021/05/12 10:27:28;;;;;;;7.97;5.47;;;15.90;98.30;;;;;;4125179;28;20476;-79
2021/05/12 10:29:32;;;;;;;7.07;5.93;;;16.00;98.30;;;;;;4125242;28;20991;-79
2021/05/12 10:31:34;;;;;;;6.90;5.20;;;15.90;98.30;;;;;;4124844;28;20529;-79